NWS Home NWS Lubbock West Texas Mesonet South Sector Latest Conditions as of 0734 PM, Sun Mar 29, 2020

Latest   N   C   S   Daily Sum   3hrΔ   24hrΔ   Soil Data 
Site Map   24hr Precip   72hr Precip   Google Plot


Station Time of Last Temp Dew Pt. RH Wind Direction Wind Speed Wind Gust Max Wind Max Temp Min Temp Max RH Min RH Altimeter 1HR Rain Today's Rain Solar Rad Red Flag
Andrews 2E  07:30 PM 66 27 23% SE1723 24 mph 117° @ 0710 PM 70 39 57 16 30.03" 0 0.00 78  
Aspermont 3NE  07:30 PM 66 41 41% SE913 19 mph 345° @ 1235 AM 72 37 89 29 30.07" 0 0.00 26  
Big Bend NP - Castolon  07:30 PM 84 48 29% SE1621 28 mph 128° @ 0725 PM 88 51 29 9 29.86" 0 0.00 97  
Big Bend NP - Persimmon Gap  07:30 PM 76 35 22% N812 29 mph 162° @ 0304 PM 84 59 27 7 29.94" 0 0.00 47  
Big Lake 1WNW  07:30 PM 69 35 29% E911 23 mph 123° @ 0444 PM 74 41 57 13 30.04" 0 0.00 26  
Brownfield 2S  07:30 PM 63 24 23% SE1720 28 mph 158° @ 0610 PM 68 38 67 17 30.05" 0 0.00 57  
Clyde 2WNW  07:30 PM 64 43 45% SE1112 21 mph 327° @ 0226 AM 70 43 79 23 30.10" 0 0.00 20  
Colorado City 5NW  07:30 PM 66 26 21% SE1317 20 mph 10° @ 0252 AM 74 40 69 15 30.08" 0 0.00 29  
Coyanosa 2N  07:30 PM 73 35 25% SE1724 30 mph 107° @ 0716 PM 79 36 65 11 29.96" 0 0.00 54  
Crane 1NNW   07:30 PM 72 38 29% SE1517 27 mph 162° @ 0422 PM 75 39 60 10 30.01" 0 0.00 93  
Dell City  07:30 PM 66 32 28% NE67 12 mph 334° @ 0111 AM 72 34 83 15 29.98" 0 0.00 45  
Denver City 7WNW  07:30 PM 63 22 21% SE1318 28 mph 157° @ 0510 PM 67 34 70 15 30.03" 0 0.00 48  
Doole 3WNW  07:30 PM 67 41 38% E911 23 mph 351° @ 0505 AM 73 39 83 19 30.08" 0 0.00 22  
Fluvanna 3WNW  07:30 PM 63 27 25% SE1316 22 mph 132° @ 0405 PM 70 41 67 18 30.06" 0 0.00 28  
Fort Chadbourne  07:30 PM 65 38 36% E911 19 mph 123° @ 0501 PM 70 37 87 23 30.09" 0 0.00 21  
Fort Lancaster  03:15 AM 46 16 29% N11 9 mph 11° @ 0254 AM 47 40 38 26 30.11" 0 0.00 0  
Fort McKavett  07:30 PM 66 40 38% E710 17 mph 93° @ 0619 PM 72 35 90 20 30.08" 0 0.00 25  
Gail 2ESE  07:30 PM 64 26 24% SE1115 20 mph 138° @ 0355 PM 71 37 73 18 30.06" 0 0.00 27  
Graham 5SSW  07:30 PM 64 27 25% SE1519 25 mph 151° @ 0650 PM 69 42 60 15 30.06" 0 0.00 44  
Guadalupe Mtns Natl Park  07:30 PM 58 18 21% E45 13 mph 107° @ 0453 PM 63 40 31 15 30.08" 0 0.00 50  
Haskell 1NW  07:30 PM 65 42 45% SE1014 22 mph 29° @ 0105 AM 71 41 89 32 30.08" 0 0.00 29  
Hobbs NM 5NW  07:30 PM 64 23 21% E1012 23 mph 159° @ 0546 PM 67 37 67 13 30.06" 0 0.00 27  
Jayton 1SSE  07:30 PM 66 39 38% SE1217 22 mph 135° @ 0525 PM 71 38 85 25 30.06" 0 0.00 37  
Junction 1SSW  07:30 PM 73 37 27% SE710 16 mph 37° @ 0310 PM 76 35 98 20 30.06" 0 0.00 11  
Kent 9E  07:30 PM 71 31 23% NE1214 22 mph 74° @ 1253 PM 76 40 32 12 30.00" 0 0.00 45  
Lake Alan Henry 1NW  07:30 PM 65 39 39% SE1012 20 mph 117° @ 0344 PM 73 39 81 23 30.06" 0 0.00 30  
Lamesa 2SE  07:30 PM 63 18 17% SE1216 25 mph 152° @ 0410 PM 71 38 71 16 30.06" 0 0.00 38  
Lomax 1SSE  07:30 PM 67 30 26% E1417 24 mph 125° @ 0554 PM 72 35 68 14 30.06" 0 0.00 59  
McCamey 1SSW  07:30 PM 71 35 26% SE1620 32 mph 125° @ 0239 PM 75 41 61 13 30.02" 0 0.00 92  
Menard 2NW   07:30 PM 65 40 41% E810 19 mph 84° @ 0146 PM 70 36 92 27 30.09" 0 0.00 23  
Mertzon 3NNE  07:30 PM 67 29 24% E1114 18 mph 125° @ 0234 PM 73 35 85 16 30.06" 0 0.00 40  
New Home  07:30 PM 63 27 25% SE912 22 mph 183° @ 0244 PM 68 38 65 17 30.07" 0 0.00 45  
O'Donnell 1N  07:30 PM 63 27 26% SE1319 22 mph 144° @ 0435 PM 69 38 67 19 30.05" 0 0.00 40  
Plains 3N  07:25 PM 63 25 23% SE1522 25 mph 154° @ 0135 PM 67 34 68 17 30.04" 0 0.00 49  
Post 1NE  07:30 PM 64 35 33% SE1216 21 mph 143° @ 0645 PM 72 41 60 15 30.06" 0 0.00 43  
Rotan 5W  07:30 PM 66 31 27% SE1315 26 mph 338° @ 0125 AM 70 44 72 26 30.08" 0 0.00 24  
San Angelo 7NW  07:30 PM 67 27 22% E1013 20 mph 98° @ 0705 PM 72 37 72 16 30.06" 0 0.00 38  
Seagraves 1SW  07:30 PM 64 24 22% SE1217 25 mph 159° @ 0430 PM 69 33 69 17 30.04" 0 0.00 49  
Segovia 7SSW  07:30 PM 70 33 26% SE1215 22 mph 129° @ 0724 PM 75 45 62 16 30.08" 0 0.00 24  
Seminole 2NNE  07:30 PM 64 23 20% SE1316 25 mph 129° @ 0700 PM 69 37 62 15 30.03" 0 0.00 46  
Sierra Blanca 1SSE  07:30 PM 71 19 13% W22 21 mph 165° @ 0238 PM 74 39 42 11 30.00" 0 0.00 83  
Snyder 3E  07:30 PM 64 30 28% SE1113 23 mph 3° @ 0210 AM 73 40 71 18 30.07" 0 0.00 21  
Snyder 3SSW  07:30 PM 64 31 28% SE810 20 mph 145° @ 0511 PM 72 43 72 18 30.08" 0 0.00 22  
St. Lawrence 5SW  07:30 PM 67 28 23% E1619 26 mph 112° @ 0610 PM 73 40 62 16 30.05" 0 0.00 32  
Stamford 5ESE  07:30 PM 65 46 50% E910 25 mph 39° @ 0158 AM 70 42 92 36 30.09" 0 0.00 29  
Sterling City 4WSW  07:30 PM 66 34 30% E1114 21 mph 100° @ 0536 PM 71 31 95 18 30.07" 0 0.00 29  
Sundown 8WSW  07:30 PM 64 20 18% SE1620 28 mph 151° @ 0310 PM 70 34 64 11 30.05" 0 0.00 41  
Sweetwater 11SW   07:30 PM 64 28 26% SE1214 21 mph 129° @ 0702 PM 70 42 72 18 30.10" 0 0.00 25  
Tahoka 3NNE  07:30 PM 63 25 23% SE1518 25 mph 134° @ 0708 PM 69 36 68 19 30.06" 0 0.00 61  
Tarzan 2WNW  07:30 PM 66 29 25% E1718 24 mph 111° @ 0530 PM 72 39 61 16 30.04" 0 0.00 50  
Tatum NM 2SW  07:30 PM 62 23 23% SE1418 28 mph 166° @ 0350 PM 68 33 73 15 30.04" 0 0.00 40  
Throckmorton 1SW  07:30 PM 63 46 53% SE810 21 mph 330° @ 1232 AM 71 44 89 37 30.10" 0 0.00 20  
Van Horn 3ENE  07:30 PM 73 22 14% NE1014 19 mph 193° @ 0457 PM 78 36 43 12 29.98" 0 0.00 54  
Wall 2E  07:30 PM 68 31 25% E1314 31 mph 360° @ 0541 AM 74 39 72 18 30.07" 0 0.00 39  
Weinert 2NNE  07:30 PM 65 42 43% SE1113 25 mph 8° @ 1209 AM 71 41 84 32 30.08" 0 0.00 22  
Welch  07:30 PM 64 25 23% SE1821 25 mph 137° @ 0459 PM 71 35 69 15 30.05" 0 0.00 40  

West Texas Mesonet Home   Site Map/Menu  NWS Lubbock Soil Data  Daily Summary Page  24hr Precip  72hr Precip  Google Plot